createdAt,value
2023-06-17T00:00:47.799Z,5.65
2023-06-17T00:03:14.505Z,5.07
2023-06-17T00:05:42.503Z,4.40
2023-06-17T00:08:09.155Z,5.10
2023-06-17T00:10:35.915Z,5.15
2023-06-17T00:13:03.639Z,4.30
2023-06-17T00:15:33.731Z,5.25
2023-06-17T00:18:01.976Z,4.75
2023-06-17T00:20:30.215Z,5.47
2023-06-17T00:22:57.019Z,4.68
2023-06-17T00:25:23.822Z,4.85
2023-06-17T00:27:50.525Z,5.25
2023-06-17T00:30:19.342Z,4.88
2023-06-17T00:32:46.471Z,4.85
2023-06-17T00:35:13.212Z,5.15
2023-06-17T00:37:39.920Z,5.25
2023-06-17T00:40:09.229Z,5.30
2023-06-17T00:42:37.519Z,4.78
2023-06-17T00:45:04.875Z,5.38
2023-06-17T00:47:31.946Z,5.53
2023-06-17T00:49:59.190Z,4.95
2023-06-17T00:52:40.977Z,6.00
2023-06-17T00:55:12.409Z,5.53
2023-06-17T00:57:40.651Z,5.15
2023-06-17T01:00:12.557Z,5.68
2023-06-17T01:02:41.678Z,5.13
2023-06-17T01:05:14.088Z,5.72
2023-06-17T01:07:59.025Z,5.30
2023-06-17T01:10:35.124Z,5.00
2023-06-17T01:13:04.832Z,5.40
2023-06-17T01:15:35.248Z,5.72
2023-06-17T01:18:05.314Z,5.85
2023-06-17T01:20:36.976Z,6.20
2023-06-17T01:23:06.338Z,6.47
2023-06-17T01:25:33.992Z,6.25
2023-06-17T01:28:11.448Z,6.13
2023-06-17T01:30:38.173Z,6.20
2023-06-17T01:33:05.005Z,6.68
2023-06-17T01:35:33.464Z,7.18
2023-06-17T01:38:18.834Z,6.20
2023-06-17T01:40:49.811Z,6.95
2023-06-17T01:43:17.886Z,7.43
2023-06-17T01:45:47.116Z,7.05
2023-06-17T01:48:13.798Z,7.20
2023-06-17T01:50:40.409Z,7.03
2023-06-17T01:53:07.168Z,7.03
2023-06-17T01:55:33.799Z,7.28
2023-06-17T01:58:00.438Z,7.10
2023-06-17T02:00:27.703Z,6.50
2023-06-17T02:02:58.317Z,7.30
2023-06-17T02:05:25.006Z,6.68
2023-06-17T02:07:53.661Z,7.97
2023-06-17T02:10:20.777Z,7.03
2023-06-17T02:12:47.638Z,7.00
2023-06-17T02:15:16.035Z,6.80
2023-06-17T02:17:43.972Z,7.82
2023-06-17T02:20:14.077Z,8.02
2023-06-17T02:22:41.638Z,7.88
2023-06-17T02:25:08.704Z,7.05
2023-06-17T02:27:36.411Z,7.70
2023-06-17T02:30:03.243Z,7.50
2023-06-17T02:32:30.861Z,7.75
2023-06-17T02:34:58.598Z,7.90
2023-06-17T02:37:27.095Z,8.15
2023-06-17T02:39:53.951Z,8.15
2023-06-17T02:42:20.713Z,7.70
2023-06-17T02:44:48.983Z,8.30
2023-06-17T02:47:15.714Z,8.63
2023-06-17T02:49:42.559Z,7.43
2023-06-17T02:52:09.251Z,8.52
2023-06-17T02:54:36.772Z,8.52
2023-06-17T02:57:07.913Z,9.32
2023-06-17T02:59:37.247Z,8.88
2023-06-17T03:02:04.378Z,9.35
2023-06-17T03:04:36.139Z,8.45
2023-06-17T03:07:05.023Z,8.52
2023-06-17T03:09:32.098Z,8.90
2023-06-17T03:12:07.241Z,8.20
2023-06-17T03:14:34.708Z,7.75
2023-06-17T03:17:04.172Z,8.63
2023-06-17T03:19:31.240Z,8.32
2023-06-17T03:21:57.899Z,8.65
2023-06-17T03:24:27.186Z,8.80
2023-06-17T03:26:55.104Z,8.52
2023-06-17T03:29:22.144Z,8.32
2023-06-17T03:31:52.614Z,8.48
2023-06-17T03:34:19.896Z,8.60
2023-06-17T03:36:48.577Z,8.60
2023-06-17T03:39:15.542Z,9.02
2023-06-17T03:41:42.921Z,9.68
2023-06-17T03:44:09.684Z,9.20
2023-06-17T03:46:36.253Z,9.48
2023-06-17T03:49:03.699Z,9.07
2023-06-17T03:51:30.544Z,10.45
2023-06-17T03:53:57.401Z,10.80
2023-06-17T03:56:24.869Z,10.23
2023-06-17T03:58:55.057Z,10.80
2023-06-17T04:01:21.872Z,10.23
2023-06-17T04:03:48.681Z,9.73
2023-06-17T04:06:17.501Z,10.52
2023-06-17T04:08:44.964Z,11.00
2023-06-17T04:11:14.221Z,10.70
2023-06-17T04:13:40.902Z,10.90
2023-06-17T04:16:10.594Z,10.43
2023-06-17T04:18:37.223Z,10.45
2023-06-17T04:21:03.780Z,10.63
2023-06-17T04:23:31.660Z,10.98
2023-06-17T04:25:59.363Z,11.07
2023-06-17T04:28:26.147Z,10.73
2023-06-17T04:30:54.154Z,11.10
2023-06-17T04:33:21.021Z,11.05
2023-06-17T04:35:50.962Z,11.48
2023-06-17T04:38:17.650Z,11.10
2023-06-17T04:40:45.373Z,11.43
2023-06-17T04:43:12.722Z,11.85
2023-06-17T04:45:40.374Z,10.85
2023-06-17T04:48:07.962Z,11.20
2023-06-17T04:50:35.085Z,10.50
2023-06-17T04:53:04.913Z,10.95
2023-06-17T04:55:37.318Z,9.77
2023-06-17T04:58:06.852Z,9.82
2023-06-17T05:00:59.908Z,9.80
2023-06-17T05:03:30.785Z,9.98
2023-06-17T05:05:57.374Z,10.45
2023-06-17T05:08:29.016Z,9.70
2023-06-17T05:10:57.677Z,10.15
2023-06-17T05:13:24.386Z,9.60
2023-06-17T05:15:53.757Z,9.27
2023-06-17T05:18:21.015Z,9.98
2023-06-17T05:20:50.364Z,10.32
2023-06-17T05:23:17.077Z,9.82
2023-06-17T05:25:44.011Z,10.10
2023-06-17T05:28:14.332Z,9.15
2023-06-17T05:30:41.525Z,10.55
2023-06-17T05:33:09.736Z,10.57
2023-06-17T05:35:37.422Z,17.85
2023-06-17T05:38:04.585Z,11.52
2023-06-17T05:40:31.200Z,10.93
2023-06-17T05:42:58.332Z,11.65
2023-06-17T05:45:26.075Z,11.32
2023-06-17T05:47:53.318Z,10.98
2023-06-17T05:50:23.214Z,10.27
2023-06-17T05:52:51.478Z,11.25
2023-06-17T05:55:18.576Z,11.48
2023-06-17T05:57:45.661Z,11.02
2023-06-17T06:00:13.304Z,10.63
2023-06-17T06:02:39.901Z,11.07
2023-06-17T06:05:08.315Z,10.88
2023-06-17T06:07:35.343Z,10.68
2023-06-17T06:10:04.509Z,11.43
2023-06-17T06:14:58.897Z,12.60
2023-06-17T06:17:26.052Z,12.43
2023-06-17T06:19:53.574Z,11.65
2023-06-17T06:22:20.901Z,12.25
2023-06-17T06:24:47.825Z,11.50
2023-06-17T06:27:14.644Z,11.32
2023-06-17T06:29:41.542Z,11.65
2023-06-17T06:32:08.648Z,11.80
2023-06-17T06:34:36.181Z,11.93
2023-06-17T06:37:03.206Z,11.18
2023-06-17T06:39:31.245Z,10.55
2023-06-17T06:41:58.613Z,10.43
2023-06-17T06:44:37.908Z,11.70
2023-06-17T06:47:04.810Z,11.13
2023-06-17T06:49:31.460Z,10.98
2023-06-17T06:51:58.301Z,10.02
2023-06-17T06:54:24.943Z,11.15
2023-06-17T06:56:52.141Z,10.50
2023-06-17T06:59:19.157Z,9.90
2023-06-17T07:01:45.759Z,10.32
2023-06-17T07:04:13.209Z,10.38
2023-06-17T07:06:39.968Z,9.68
2023-06-17T07:09:10.093Z,9.30
2023-06-17T07:11:37.081Z,8.57
2023-06-17T07:14:04.044Z,8.90
2023-06-17T07:16:30.855Z,9.70
2023-06-17T07:18:57.799Z,8.85
2023-06-17T07:21:24.863Z,8.90
2023-06-17T07:23:52.317Z,9.05
2023-06-17T07:26:20.146Z,8.27
2023-06-17T07:28:46.994Z,7.78
2023-06-17T07:31:16.672Z,7.65
2023-06-17T07:33:43.383Z,8.57
2023-06-17T07:36:10.400Z,7.47
2023-06-17T07:38:37.227Z,8.43
2023-06-17T07:41:03.907Z,7.22
2023-06-17T07:43:31.104Z,7.88
2023-06-17T07:45:58.120Z,8.50
2023-06-17T07:48:24.655Z,8.52
2023-06-17T07:50:51.452Z,8.05
2023-06-17T07:53:18.019Z,8.43
2023-06-17T07:55:45.180Z,8.15
2023-06-17T07:58:11.977Z,8.25
2023-06-17T08:00:38.988Z,8.43
2023-06-17T08:03:06.380Z,8.10
2023-06-17T08:05:33.435Z,8.68
2023-06-17T08:08:00.257Z,7.78
2023-06-17T08:10:27.039Z,8.27
2023-06-17T08:12:54.012Z,9.23
2023-06-17T08:15:20.958Z,8.38
2023-06-17T08:17:49.508Z,12.48
2023-06-17T08:20:17.146Z,12.40
2023-06-17T08:22:44.069Z,8.48
2023-06-17T08:25:12.332Z,8.07
2023-06-17T08:27:39.009Z,8.15
2023-06-17T08:30:07.034Z,8.32
2023-06-17T08:32:33.635Z,8.30
2023-06-17T08:35:07.023Z,8.32
2023-06-17T08:37:34.665Z,9.23
2023-06-17T08:40:05.792Z,9.48
2023-06-17T08:42:33.028Z,9.32
2023-06-17T08:45:04.755Z,7.47
2023-06-17T08:47:31.469Z,6.47
2023-06-17T08:49:58.889Z,7.10
2023-06-17T08:52:27.221Z,7.00
2023-06-17T08:54:55.439Z,6.97
2023-06-17T08:57:22.263Z,7.82
2023-06-17T08:59:48.895Z,6.80
2023-06-17T09:02:16.722Z,7.40
2023-06-17T09:04:43.475Z,6.90
2023-06-17T09:07:10.748Z,6.55
2023-06-17T09:09:40.499Z,7.13
2023-06-17T09:12:09.421Z,10.65
2023-06-17T09:14:36.670Z,8.07
2023-06-17T09:17:04.108Z,6.43
2023-06-17T09:19:35.299Z,6.38
2023-06-17T09:22:07.167Z,6.53
2023-06-17T09:24:34.913Z,5.97
2023-06-17T09:27:02.776Z,7.97
2023-06-17T09:29:34.178Z,7.07
2023-06-17T09:32:04.395Z,6.50
2023-06-17T09:34:32.223Z,6.70
2023-06-17T09:37:04.558Z,5.68
2023-06-17T09:39:32.885Z,6.13
2023-06-17T09:42:10.359Z,6.40
2023-06-17T09:44:47.762Z,5.57
2023-06-17T09:47:14.721Z,6.32
2023-06-17T09:49:44.814Z,6.10
2023-06-17T09:52:12.278Z,6.38
2023-06-17T09:54:42.277Z,5.70
2023-06-17T09:57:10.407Z,5.07
2023-06-17T09:59:37.081Z,6.00
2023-06-17T10:02:03.963Z,5.80
2023-06-17T10:04:31.415Z,5.35
2023-06-17T10:07:01.208Z,5.72
2023-06-17T10:09:28.457Z,5.40
2023-06-17T10:11:57.471Z,5.32
2023-06-17T10:14:32.072Z,5.47
2023-06-17T10:16:59.848Z,5.97
2023-06-17T10:19:30.472Z,4.97
2023-06-17T10:22:00.113Z,5.03
2023-06-17T10:24:27.704Z,5.05
2023-06-17T10:26:54.653Z,4.78
2023-06-17T10:29:21.786Z,5.32
2023-06-17T10:31:48.565Z,5.28
2023-06-17T10:34:23.090Z,4.95
2023-06-17T10:36:52.493Z,5.15
2023-06-17T10:39:19.347Z,4.85
2023-06-17T10:41:51.014Z,4.60
2023-06-17T10:44:35.889Z,4.82
2023-06-17T10:47:04.262Z,4.88
2023-06-17T10:49:40.107Z,5.00
2023-06-17T10:52:12.298Z,4.93
2023-06-17T10:54:46.955Z,4.57
2023-06-17T10:57:13.546Z,4.47
2023-06-17T10:59:40.094Z,4.75
2023-06-17T11:02:08.216Z,4.53
2023-06-17T11:04:42.192Z,4.57
2023-06-17T11:07:09.324Z,4.93
2023-06-17T11:09:37.102Z,4.45
2023-06-17T11:12:05.283Z,4.68
2023-06-17T11:14:34.134Z,4.37
2023-06-17T11:17:00.849Z,4.43
2023-06-17T11:19:27.520Z,4.88
2023-06-17T11:21:58.653Z,4.80
2023-06-17T11:24:26.581Z,4.32
2023-06-17T11:26:53.331Z,4.40
2023-06-17T11:29:20.068Z,4.80
2023-06-17T11:31:46.786Z,4.70
2023-06-17T11:34:13.870Z,4.65
2023-06-17T11:36:40.559Z,4.18
2023-06-17T11:39:07.231Z,5.25
2023-06-17T11:41:34.727Z,4.07
2023-06-17T11:44:02.052Z,4.78
2023-06-17T11:46:28.801Z,4.45
2023-06-17T11:48:56.433Z,4.53
2023-06-17T11:51:24.210Z,4.55
2023-06-17T11:53:51.430Z,4.63
2023-06-17T11:56:21.320Z,4.57
2023-06-17T11:58:51.999Z,5.03
2023-06-17T12:01:25.413Z,5.03
2023-06-17T12:03:52.726Z,4.40
2023-06-17T12:06:23.185Z,4.50
2023-06-17T12:09:00.888Z,5.60
2023-06-17T12:11:31.577Z,4.50
2023-06-17T12:13:59.621Z,5.07
2023-06-17T12:16:31.605Z,5.68
2023-06-17T12:18:59.482Z,5.00
2023-06-17T12:21:26.178Z,4.35
2023-06-17T12:23:54.759Z,5.07
2023-06-17T12:26:24.822Z,5.10
2023-06-17T12:28:51.677Z,4.97
2023-06-17T12:31:18.997Z,5.18
2023-06-17T12:33:47.625Z,5.30
2023-06-17T12:36:15.011Z,4.93
2023-06-17T12:38:41.648Z,5.20
2023-06-17T12:41:08.425Z,5.68
2023-06-17T12:43:35.720Z,5.25
2023-06-17T12:46:02.432Z,4.88
2023-06-17T12:48:30.583Z,5.20
2023-06-17T12:50:57.664Z,5.20
2023-06-17T12:53:24.915Z,5.28
2023-06-17T12:55:52.061Z,5.13
2023-06-17T12:58:18.690Z,5.50
2023-06-17T13:00:45.506Z,5.30
2023-06-17T13:03:13.781Z,5.13
2023-06-17T13:05:41.916Z,5.80
2023-06-17T13:08:09.634Z,6.00
2023-06-17T13:10:36.537Z,5.38
2023-06-17T13:13:03.450Z,5.90
2023-06-17T13:15:31.203Z,5.32
2023-06-17T13:17:57.887Z,5.53
2023-06-17T13:20:25.052Z,6.07
2023-06-17T13:22:52.140Z,5.70
2023-06-17T13:25:19.264Z,5.40
2023-06-17T13:27:45.879Z,5.63
2023-06-17T13:30:12.547Z,5.32
2023-06-17T13:32:39.307Z,4.90
2023-06-17T13:35:06.580Z,5.22
2023-06-17T13:37:33.300Z,5.78
2023-06-17T13:39:59.916Z,5.30
2023-06-17T13:42:26.596Z,5.55
2023-06-17T13:44:53.402Z,11.25
2023-06-17T13:47:20.213Z,48.45
2023-06-17T13:49:46.833Z,64.75
2023-06-17T13:52:14.890Z,108.95
2023-06-17T13:54:41.654Z,26.57
2023-06-17T13:57:08.990Z,14.80
2023-06-17T13:59:36.063Z,14.88
2023-06-17T14:02:03.128Z,6.15
2023-06-17T14:04:30.399Z,5.68
2023-06-17T14:06:57.866Z,6.43
2023-06-17T14:09:24.514Z,6.93
2023-06-17T14:11:57.763Z,9.95
2023-06-17T14:14:26.579Z,25.20
2023-06-17T14:17:05.080Z,5.90
2023-06-17T14:19:37.584Z,5.25
2023-06-17T14:22:12.038Z,4.95
2023-06-17T14:24:47.087Z,5.40
2023-06-17T14:27:40.042Z,5.20
2023-06-17T14:30:23.350Z,5.78
2023-06-17T14:32:54.062Z,5.60
2023-06-17T14:35:21.658Z,20.05
2023-06-17T14:37:54.142Z,28.70
2023-06-17T14:40:23.245Z,11.38
2023-06-17T14:42:50.137Z,12.57
2023-06-17T14:45:17.591Z,58.08
2023-06-17T14:47:45.225Z,7.75
2023-06-17T14:50:13.238Z,6.20
2023-06-17T14:52:42.307Z,7.37
2023-06-17T14:55:09.667Z,6.50
2023-06-17T14:57:36.447Z,5.63
2023-06-17T15:00:04.397Z,5.80
2023-06-17T15:02:47.072Z,11.02
2023-06-17T15:05:14.455Z,8.50
2023-06-17T15:07:41.061Z,13.68
2023-06-17T15:10:08.123Z,5.70
2023-06-17T15:12:38.222Z,12.85
2023-06-17T15:15:05.993Z,10.38
2023-06-17T15:17:32.595Z,6.07
2023-06-17T15:19:59.178Z,5.82
2023-06-17T15:22:25.766Z,5.90
2023-06-17T15:24:53.818Z,5.95
2023-06-17T15:27:20.380Z,6.23
2023-06-17T15:29:46.959Z,6.13
2023-06-17T15:32:13.604Z,6.18
2023-06-17T15:34:40.202Z,5.95
2023-06-17T15:37:08.152Z,5.22
2023-06-17T15:39:35.946Z,13.93
2023-06-17T15:42:02.738Z,7.32
2023-06-17T15:44:29.453Z,6.25
2023-06-17T15:46:56.097Z,8.15
2023-06-17T15:49:22.736Z,6.40
2023-06-17T15:51:49.299Z,5.55
2023-06-17T15:54:15.943Z,6.00
2023-06-17T15:56:46.929Z,5.78
2023-06-17T15:59:13.660Z,6.13
2023-06-17T16:01:40.378Z,6.00
2023-06-17T16:04:32.226Z,5.50
2023-06-17T16:07:00.108Z,6.75
2023-06-17T16:09:28.230Z,5.30
2023-06-17T16:11:54.800Z,6.03
2023-06-17T16:14:21.378Z,5.13
2023-06-17T16:16:47.933Z,5.95
2023-06-17T16:19:14.510Z,5.40
2023-06-17T16:21:41.239Z,6.18
2023-06-17T16:24:09.892Z,5.18
2023-06-17T16:26:36.450Z,5.38
2023-06-17T16:29:03.344Z,5.30
2023-06-17T16:31:30.015Z,5.10
2023-06-17T16:33:56.672Z,5.38
2023-06-17T16:36:23.364Z,8.27
2023-06-17T16:38:49.973Z,5.30
2023-06-17T16:41:16.636Z,5.15
2023-06-17T16:43:43.301Z,5.25
2023-06-17T16:46:09.875Z,5.60
2023-06-17T16:48:36.545Z,5.60
2023-06-17T16:51:21.597Z,5.15
2023-06-17T16:53:48.140Z,5.90
2023-06-17T16:56:14.760Z,9.55
2023-06-17T16:58:41.444Z,6.78
2023-06-17T17:01:08.046Z,5.22
2023-06-17T17:03:34.701Z,5.40
2023-06-17T17:06:03.598Z,5.60
2023-06-17T17:08:32.987Z,5.13
2023-06-17T17:10:59.775Z,5.72
2023-06-17T17:13:33.503Z,5.40
2023-06-17T17:16:06.666Z,5.45
2023-06-17T17:18:33.360Z,5.03
2023-06-17T17:20:59.880Z,5.25
2023-06-17T17:23:26.413Z,5.63
2023-06-17T17:25:53.040Z,6.00
2023-06-17T17:28:19.690Z,5.00
2023-06-17T17:30:46.269Z,4.93
2023-06-17T17:33:13.264Z,5.63
2023-06-17T17:35:39.904Z,5.30
2023-06-17T17:38:06.506Z,5.20
2023-06-17T17:40:33.140Z,5.10
2023-06-17T17:42:59.722Z,5.68
2023-06-17T17:45:26.814Z,5.10
2023-06-17T17:47:53.343Z,4.82
2023-06-17T17:50:20.253Z,5.40
2023-06-17T17:52:47.661Z,4.57
2023-06-17T17:55:14.374Z,5.00
2023-06-17T17:57:41.164Z,5.18
2023-06-17T18:00:08.447Z,5.38
2023-06-17T18:02:41.899Z,4.90
2023-06-17T18:05:09.325Z,4.88
2023-06-17T18:07:36.484Z,4.60
2023-06-17T18:10:04.296Z,5.00
2023-06-17T18:12:30.962Z,5.00
2023-06-17T18:14:57.759Z,5.50
2023-06-17T18:17:24.592Z,4.80
2023-06-17T18:19:51.179Z,5.38
2023-06-17T18:22:17.781Z,6.05
2023-06-17T18:24:44.314Z,5.15
2023-06-17T18:27:13.543Z,4.95
2023-06-17T18:29:43.280Z,5.53
2023-06-17T18:32:09.865Z,5.43
2023-06-17T18:34:36.433Z,5.30
2023-06-17T18:37:04.377Z,5.55
2023-06-17T18:39:31.192Z,5.40
2023-06-17T18:41:57.796Z,5.47
2023-06-17T18:44:24.712Z,5.45
2023-06-17T18:46:52.185Z,5.20
2023-06-17T18:49:24.042Z,5.80
2023-06-17T18:51:52.235Z,5.80
2023-06-17T18:54:18.914Z,5.57
2023-06-17T18:56:57.006Z,5.25
2023-06-17T18:59:30.489Z,5.90
2023-06-17T19:01:57.148Z,5.97
2023-06-17T19:04:23.729Z,5.50
2023-06-17T19:06:50.524Z,5.18
2023-06-17T19:09:17.223Z,5.30
2023-06-17T19:11:43.867Z,5.03
2023-06-17T19:14:11.256Z,5.90
2023-06-17T19:16:38.496Z,5.50
2023-06-17T19:19:05.242Z,5.68
2023-06-17T19:21:32.284Z,6.10
2023-06-17T19:23:58.934Z,5.38
2023-06-17T19:26:27.508Z,6.30
2023-06-17T19:28:54.227Z,6.00
2023-06-17T19:31:25.584Z,5.82
2023-06-17T19:33:53.453Z,6.00
2023-06-17T19:36:26.317Z,5.82
2023-06-17T19:38:53.022Z,5.43
2023-06-17T19:41:22.548Z,6.13
2023-06-17T19:43:56.121Z,5.90
2023-06-17T19:46:28.563Z,6.63
2023-06-17T19:48:55.421Z,6.05
2023-06-17T19:51:22.061Z,5.80
2023-06-17T19:53:50.852Z,5.45
2023-06-17T19:56:17.675Z,6.40
2023-06-17T19:58:44.260Z,6.13
2023-06-17T20:01:10.879Z,6.15
2023-06-17T20:03:37.644Z,5.90
2023-06-17T20:06:04.520Z,6.28
2023-06-17T20:08:31.095Z,6.43
2023-06-17T20:10:57.768Z,6.45
2023-06-17T20:13:24.403Z,5.63
2023-06-17T20:15:52.589Z,6.40
2023-06-17T20:18:19.239Z,6.55
2023-06-17T20:20:46.545Z,6.00
2023-06-17T20:23:13.184Z,6.20
2023-06-17T20:25:39.795Z,5.95
2023-06-17T20:28:06.461Z,6.50
2023-06-17T20:30:33.106Z,6.22
2023-06-17T20:32:59.848Z,6.25
2023-06-17T20:35:26.510Z,6.43
2023-06-17T20:37:53.105Z,6.75
2023-06-17T20:40:20.002Z,6.85
2023-06-17T20:42:46.817Z,6.40
2023-06-17T20:45:13.426Z,7.35
2023-06-17T20:47:40.174Z,7.28
2023-06-17T20:50:07.534Z,8.00
2023-06-17T20:52:34.129Z,7.05
2023-06-17T20:55:00.774Z,6.97
2023-06-17T20:57:27.792Z,6.97
2023-06-17T20:59:54.483Z,7.47
2023-06-17T21:02:21.144Z,8.30
2023-06-17T21:04:47.914Z,8.23
2023-06-17T21:07:14.474Z,7.78
2023-06-17T21:09:42.685Z,8.82
2023-06-17T21:12:09.556Z,7.78
2023-06-17T21:14:36.295Z,7.32
2023-06-17T21:17:02.991Z,7.97
2023-06-17T21:19:29.558Z,9.70
2023-06-17T21:21:56.229Z,7.78
2023-06-17T21:24:22.858Z,8.30
2023-06-17T21:26:49.470Z,7.72
2023-06-17T21:29:16.004Z,7.47
2023-06-17T21:31:52.039Z,8.23
